Hilldale, Tennessee
Current Conditions -  °F | °C
As of 2:52 AM on Wednesday 28 Jan 2015 (Local Time) from KCKV Reporting Station
Overcast Overcast  
Wind Chill: 27°   Ceiling: 2700
Heat Index: 32°   Visibility: 7mi
Dew Point: 29°   Wind: 5mph
Humidity: 88%   Direction: 50°NE
Pressure: 30.27"   Gusts: NA
Location:  36.4964°N, 87.234°W
Report Text: KCKV 280852Z AUTO 05004KT 7SM OVC027 00/M02 A3027 RMK AO2 SLP255 T00001017 53008
Loading
Personal Weather Stations






























Interactive Weather Map New forecast layout! Learn more

10-Day Weather Forecast

Advertisements
Track Severe Weather on mobile